Time;durP1;ratioP1;P1;durP2;ratioP2;P2;SDS_P1;SDS_P2;PMS_P1;PMS_P2;Temp;Humidity;BMP_temperature;BMP_pressure;BME280_temperature;BME280_humidity;BME280_pressure;Samples;Min_cycle;Max_cycle;Signal;HPM_P1;HPM_P2
2021/07/25 00:00:05;;;;;;;72.25;50.50;;;;;;;;;;5052517;28;37808;-82
2021/07/25 00:02:50;;;;;;;72.88;50.03;;;;;;;;;;5066573;28;49967;-82
2021/07/25 00:05:16;;;;;;;85.97;57.08;;;;;;;;;;5053237;28;38965;-80
2021/07/25 00:07:59;;;;;;;118.93;66.22;;;;;;;;;;5058886;28;38597;-82
2021/07/25 00:10:32;;;;;;;100.45;59.22;;;;;;;;;;5062339;28;37951;-82
2021/07/25 00:13:03;;;;;;;93.55;57.85;;;;;;;;;;5067522;28;38485;-82
2021/07/25 00:15:38;;;;;;;83.55;54.85;;;;;;;;;;5071667;28;49417;-82
2021/07/25 00:18:11;;;;;;;97.35;58.67;;;;;;;;;;5076873;28;38550;-79
2021/07/25 00:20:37;;;;;;;100.72;59.45;;;;;;;;;;5096619;28;36711;-81
2021/07/25 00:23:18;;;;;;;100.78;62.45;;;;;;;;;;5083646;28;37276;-79
2021/07/25 00:25:47;;;;;;;95.30;58.45;;;;;;;;;;5046952;28;38710;-81
2021/07/25 00:28:32;;;;;;;78.90;51.70;;;;;;;;;;5051356;28;39890;-82
2021/07/25 00:31:02;;;;;;;71.63;48.92;;;;;;;;;;5060608;28;37665;-82
2021/07/25 00:33:30;;;;;;;109.22;63.03;;;;;;;;;;5050913;28;48171;-81
2021/07/25 00:36:00;;;;;;;93.60;58.03;;;;;;;;;;5039296;28;38724;-83
2021/07/25 00:38:34;;;;;;;134.57;69.65;;;;;;;;;;5058566;28;48524;-82
2021/07/25 00:48:50;;;;;;;82.30;54.03;;;;;;;;;;5740207;22;20048;-80
2021/07/25 00:51:28;;;;;;;116.38;65.13;;;;;;;;;;5109044;27;38797;-81
2021/07/25 00:53:55;;;;;;;105.28;60.05;;;;;;;;;;5122807;27;38589;-80
2021/07/25 00:56:23;;;;;;;101.65;59.97;;;;;;;;;;5126023;28;40413;-80
2021/07/25 00:59:05;;;;;;;104.60;60.15;;;;;;;;;;5106480;27;38295;-81
2021/07/25 01:01:33;;;;;;;;;;;;;;;;;;5121232;28;49378;-81
2021/07/25 01:04:06;;;;;;;89.57;53.15;;;;;;;;;;5108999;28;36732;-80
2021/07/25 01:06:39;;;;;;;96.00;57.15;;;;;;;;;;5123623;28;48438;-79
2021/07/25 01:09:26;;;;;;;85.25;55.13;;;;;;;;;;5098063;28;38447;-80
2021/07/25 01:11:56;;;;;;;94.05;56.78;;;;;;;;;;5121862;28;39250;-80
2021/07/25 01:14:31;;;;;;;113.05;62.92;;;;;;;;;;5118115;28;38088;-81
2021/07/25 01:17:23;;;;;;;77.40;50.78;;;;;;;;;;5121850;28;38114;-81
2021/07/25 01:19:51;;;;;;;83.55;52.95;;;;;;;;;;5119897;28;49076;-80
2021/07/25 01:22:17;;;;;;;82.85;52.72;;;;;;;;;;5119859;28;38365;-80
2021/07/25 01:24:51;;;;;;;84.53;52.70;;;;;;;;;;5126867;28;38507;-81
2021/07/25 01:27:21;;;;;;;85.20;52.53;;;;;;;;;;5125013;27;39058;-81
2021/07/25 01:29:48;;;;;;;76.80;49.38;;;;;;;;;;5104916;28;38403;-81
2021/07/25 01:32:15;;;;;;;80.68;49.45;;;;;;;;;;5125916;28;38549;-81
2021/07/25 01:34:42;;;;;;;74.93;48.25;;;;;;;;;;5124357;28;38235;-81
2021/07/25 01:37:12;;;;;;;76.28;49.20;;;;;;;;;;5109574;28;38967;-80
2021/07/25 01:39:45;;;;;;;76.28;48.17;;;;;;;;;;5135231;28;38908;-81
2021/07/25 01:42:11;;;;;;;85.95;52.67;;;;;;;;;;5103856;28;37083;-80
2021/07/25 01:44:38;;;;;;;81.57;51.35;;;;;;;;;;5114686;28;37266;-81
2021/07/25 01:47:04;;;;;;;81.95;51.38;;;;;;;;;;5118801;28;40201;-80
2021/07/25 01:49:34;;;;;;;65.55;46.45;;;;;;;;;;5129830;27;39668;-81
2021/07/25 01:52:00;;;;;;;66.70;46.63;;;;;;;;;;5119658;28;39078;-81
2021/07/25 01:54:26;;;;;;;90.38;53.65;;;;;;;;;;5101205;28;39231;-81
2021/07/25 01:56:57;;;;;;;82.32;51.80;;;;;;;;;;5116734;28;38984;-81
2021/07/25 01:59:23;;;;;;;71.32;47.85;;;;;;;;;;5110881;28;38738;-81
2021/07/25 02:01:50;;;;;;;79.97;51.50;;;;;;;;;;5105493;28;38138;-81
2021/07/25 02:04:17;;;;;;;58.75;42.28;;;;;;;;;;5120938;28;37143;-81
2021/07/25 02:06:43;;;;;;;67.07;45.60;;;;;;;;;;5131661;28;39085;-81
2021/07/25 02:09:12;;;;;;;74.03;47.75;;;;;;;;;;5108184;28;38529;-80
2021/07/25 02:11:38;;;;;;;89.07;52.60;;;;;;;;;;5105450;28;38319;-80
2021/07/25 02:14:08;;;;;;;84.43;52.50;;;;;;;;;;5128800;28;38938;-79
2021/07/25 02:16:36;;;;;;;64.70;44.78;;;;;;;;;;5118034;28;38574;-81
2021/07/25 02:19:03;;;;;;;59.17;41.33;;;;;;;;;;5135670;28;38215;-76
2021/07/25 02:21:30;;;;;;;86.82;50.53;;;;;;;;;;5136324;28;36879;-81
2021/07/25 02:23:58;;;;;;;51.33;37.45;;;;;;;;;;5111438;28;37207;-80
2021/07/25 02:26:36;;;;;;;89.57;49.45;;;;;;;;;;5128100;27;40630;-81
2021/07/25 02:29:08;;;;;;;68.25;43.95;;;;;;;;;;5128152;28;39749;-81
2021/07/25 02:31:37;;;;;;;77.07;47.47;;;;;;;;;;5432996;22;38738;-82
2021/07/25 02:34:04;;;;;;;115.43;55.63;;;;;;;;;;5074471;28;37315;-77
2021/07/25 02:36:38;;;;;;;100.40;51.92;;;;;;;;;;5105884;27;39397;-80
2021/07/25 02:39:05;;;;;;;80.07;44.15;;;;;;;;;;5097945;28;40126;-80
2021/07/25 02:41:32;;;;;;;42.10;30.55;;;;;;;;;;5088983;28;37815;-80
2021/07/25 02:46:35;;;;;;;40.55;27.08;;;;;;;;;;5718265;22;20046;-81
2021/07/25 02:49:15;;;;;;;53.95;33.70;;;;;;;;;;5092616;28;35833;-77
2021/07/25 02:51:42;;;;;;;62.80;35.80;;;;;;;;;;5075313;28;37878;-80
2021/07/25 02:56:41;;;;;;;45.67;29.75;;;;;;;;;;5091123;28;20025;-80
2021/07/25 02:59:28;;;;;;;45.40;29.02;;;;;;;;;;5076159;28;37129;-79
2021/07/25 03:01:54;;;;;;;35.00;25.38;;;;;;;;;;5071853;28;37655;-81
2021/07/25 03:04:21;;;;;;;35.08;24.10;;;;;;;;;;5072284;28;36108;-81
2021/07/25 03:06:51;;;;;;;37.80;26.95;;;;;;;;;;5076321;28;38866;-81
2021/07/25 03:09:23;;;;;;;32.60;23.52;;;;;;;;;;5072510;28;38201;-81
2021/07/25 03:11:50;;;;;;;28.00;20.35;;;;;;;;;;5075142;28;37687;-81
2021/07/25 03:14:16;;;;;;;39.58;27.20;;;;;;;;;;5091343;28;36095;-80
2021/07/25 03:16:45;;;;;;;36.50;25.38;;;;;;;;;;5089305;28;37940;-80
2021/07/25 03:19:11;;;;;;;26.30;20.23;;;;;;;;;;5077441;28;38241;-81
2021/07/25 03:21:38;;;;;;;37.88;25.40;;;;;;;;;;5090495;28;39354;-81
2021/07/25 03:24:04;;;;;;;41.15;25.70;;;;;;;;;;5071354;28;35385;-78
2021/07/25 03:26:32;;;;;;;35.15;22.50;;;;;;;;;;5094842;28;39405;-81
2021/07/25 03:29:08;;;;;;;29.65;20.90;;;;;;;;;;5095961;28;39203;-81
2021/07/25 03:31:34;;;;;;;29.77;20.83;;;;;;;;;;5061547;28;48027;-81
2021/07/25 03:49:51;;;;;;;27.02;19.17;;;;;;;;;;5073704;28;20033;-80
2021/07/25 03:52:29;;;;;;;23.33;17.95;;;;;;;;;;5063558;28;37147;-81
2021/07/25 04:05:21;;;;;;;22.50;15.48;;;;;;;;;;6146015;22;20415;-81
2021/07/25 04:23:26;;;;;;;24.73;14.15;;;;;;;;;;5920779;22;20045;-81
2021/07/25 04:25:53;;;;;;;19.40;12.77;;;;;;;;;;5039658;28;37373;-80
2021/07/25 04:28:24;;;;;;;20.27;14.10;;;;;;;;;;5034091;28;40218;-80
2021/07/25 04:30:53;;;;;;;20.83;14.43;;;;;;;;;;5054306;28;38197;-80
2021/07/25 04:33:40;;;;;;;19.63;14.43;;;;;;;;;;5037966;28;38567;-80
2021/07/25 04:36:13;;;;;;;16.35;12.52;;;;;;;;;;5037883;28;37383;-80
2021/07/25 04:38:58;;;;;;;17.92;12.55;;;;;;;;;;5039111;28;40034;-81
2021/07/25 04:41:29;;;;;;;16.38;12.60;;;;;;;;;;5039149;28;38865;-81
2021/07/25 04:49:11;;;;;;;16.63;12.65;;;;;;;;;;5677538;22;20034;-79
2021/07/25 05:07:22;;;;;;;20.23;14.23;;;;;;;;;;5280158;22;20046;-79
2021/07/25 05:09:49;;;;;;;17.25;12.55;;;;;;;;;;5053607;28;38959;-81
2021/07/25 05:12:20;;;;;;;18.70;13.43;;;;;;;;;;4999363;28;38821;-80
2021/07/25 05:15:06;;;;;;;14.27;11.35;;;;;;;;;;5044300;28;34844;-80
2021/07/25 05:17:52;;;;;;;15.35;12.20;;;;;;;;;;5061402;28;49308;-80
2021/07/25 05:20:19;;;;;;;16.55;12.77;;;;;;;;;;5049840;28;39060;-79
2021/07/25 05:22:49;;;;;;;14.55;12.10;;;;;;;;;;5067104;28;37760;-80
2021/07/25 05:25:17;;;;;;;16.13;12.00;;;;;;;;;;5054065;28;39453;-80
2021/07/25 05:27:52;;;;;;;17.58;11.98;;;;;;;;;;5075212;28;37352;-80
2021/07/25 05:30:22;;;;;;;14.95;10.88;;;;;;;;;;5054900;28;38904;-80
2021/07/25 05:32:48;;;;;;;14.98;11.40;;;;;;;;;;5071155;28;40109;-81
2021/07/25 05:35:17;;;;;;;14.98;10.65;;;;;;;;;;5044630;28;37690;-80
2021/07/25 05:37:43;;;;;;;13.40;11.52;;;;;;;;;;5074386;28;36771;-81
2021/07/25 05:40:11;;;;;;;16.10;12.30;;;;;;;;;;5070637;28;39408;-80
2021/07/25 05:42:44;;;;;;;16.88;11.75;;;;;;;;;;5063363;28;38405;-81
2021/07/25 05:45:12;;;;;;;15.63;11.23;;;;;;;;;;5072550;28;38980;-80
2021/07/25 05:47:43;;;;;;;16.40;11.75;;;;;;;;;;5066833;28;37369;-80
2021/07/25 05:50:12;;;;;;;15.13;11.50;;;;;;;;;;5058782;28;40000;-80
2021/07/25 05:52:47;;;;;;;17.65;11.45;;;;;;;;;;5072367;28;38655;-80
2021/07/25 05:55:14;;;;;;;16.42;11.18;;;;;;;;;;5070835;28;38749;-81
2021/07/25 05:57:40;;;;;;;18.95;12.07;;;;;;;;;;5086994;28;38705;-81
2021/07/25 06:00:13;;;;;;;16.08;12.13;;;;;;;;;;5071266;28;40462;-80
2021/07/25 06:02:53;;;;;;;15.23;11.80;;;;;;;;;;5059640;28;48347;-80
2021/07/25 06:05:20;;;;;;;18.40;13.95;;;;;;;;;;5062738;28;40483;-80
2021/07/25 06:07:46;;;;;;;20.67;12.73;;;;;;;;;;5073335;28;35952;-80
2021/07/25 06:10:16;;;;;;;17.52;12.73;;;;;;;;;;5066199;28;39038;-80
2021/07/25 06:12:43;;;;;;;14.60;12.57;;;;;;;;;;5074709;28;38573;-80
2021/07/25 06:15:10;;;;;;;16.58;14.20;;;;;;;;;;5062476;28;38462;-79
2021/07/25 06:17:36;;;;;;;17.95;12.23;;;;;;;;;;5057259;28;36904;-79
2021/07/25 06:20:03;;;;;;;16.90;13.00;;;;;;;;;;5037376;28;38253;-80
2021/07/25 06:22:40;;;;;;;13.25;11.38;;;;;;;;;;5060811;28;47313;-80
2021/07/25 06:25:06;;;;;;;20.38;11.77;;;;;;;;;;5063117;28;37952;-79
2021/07/25 06:27:48;;;;;;;16.67;11.55;;;;;;;;;;5061772;28;37541;-80
2021/07/25 06:30:14;;;;;;;16.65;11.13;;;;;;;;;;5055231;28;40508;-80
2021/07/25 06:32:59;;;;;;;17.88;11.30;;;;;;;;;;5067933;28;38270;-80
2021/07/25 06:35:27;;;;;;;16.33;10.68;;;;;;;;;;5051741;28;37929;-80
2021/07/25 06:37:54;;;;;;;17.17;10.35;;;;;;;;;;5059324;28;38358;-80
2021/07/25 06:40:21;;;;;;;11.73;10.52;;;;;;;;;;5069170;28;37680;-82
2021/07/25 06:42:48;;;;;;;19.95;11.82;;;;;;;;;;5052322;28;37326;-82
2021/07/25 06:45:14;;;;;;;13.13;11.30;;;;;;;;;;5036805;28;36359;-82
2021/07/25 06:47:42;;;;;;;13.90;10.68;;;;;;;;;;5051114;28;36239;-81
2021/07/25 06:50:08;;;;;;;16.98;9.82;;;;;;;;;;5053597;28;39265;-79
2021/07/25 06:52:35;;;;;;;18.60;12.10;;;;;;;;;;5054293;28;39994;-80
2021/07/25 06:55:01;;;;;;;15.13;11.23;;;;;;;;;;5052258;28;38983;-79
2021/07/25 06:57:27;;;;;;;17.35;10.48;;;;;;;;;;5039219;28;38130;-79
2021/07/25 06:59:54;;;;;;;14.32;11.15;;;;;;;;;;5046254;28;39020;-79
2021/07/25 07:02:20;;;;;;;17.13;11.00;;;;;;;;;;5047545;28;39484;-79
2021/07/25 07:04:47;;;;;;;15.63;11.57;;;;;;;;;;5050087;28;38231;-79
2021/07/25 07:07:13;;;;;;;13.77;10.73;;;;;;;;;;5041366;28;37704;-79
2021/07/25 07:09:39;;;;;;;16.25;11.45;;;;;;;;;;5025848;28;37734;-79
2021/07/25 07:12:06;;;;;;;15.05;11.13;;;;;;;;;;5042763;28;36898;-78
2021/07/25 07:14:32;;;;;;;14.80;10.88;;;;;;;;;;5026247;28;38442;-78
2021/07/25 07:16:58;;;;;;;14.40;10.95;;;;;;;;;;5043898;28;37242;-79
2021/07/25 07:19:25;;;;;;;20.20;12.70;;;;;;;;;;5029202;28;37973;-78
2021/07/25 07:21:51;;;;;;;15.68;12.43;;;;;;;;;;5019868;28;38449;-78
2021/07/25 07:24:18;;;;;;;13.43;11.30;;;;;;;;;;5037349;28;39150;-79
2021/07/25 07:26:44;;;;;;;17.67;12.30;;;;;;;;;;5033191;28;37244;-78
2021/07/25 07:29:10;;;;;;;17.17;12.90;;;;;;;;;;5034024;28;38051;-81
2021/07/25 07:31:37;;;;;;;18.25;12.60;;;;;;;;;;5043089;28;38663;-79
2021/07/25 07:34:03;;;;;;;17.58;12.77;;;;;;;;;;5041316;28;37383;-80
2021/07/25 07:36:29;;;;;;;17.30;13.27;;;;;;;;;;5036989;28;38675;-79
2021/07/25 07:38:56;;;;;;;16.02;12.85;;;;;;;;;;5041285;28;38796;-79
2021/07/25 07:41:22;;;;;;;17.40;13.07;;;;;;;;;;5041846;28;39497;-78
2021/07/25 07:43:49;;;;;;;14.98;11.98;;;;;;;;;;5045280;28;37701;-77
2021/07/25 07:46:15;;;;;;;15.55;12.55;;;;;;;;;;5040871;28;36574;-77
2021/07/25 07:48:42;;;;;;;17.05;12.45;;;;;;;;;;5045209;28;38674;-76
2021/07/25 07:51:08;;;;;;;16.95;12.45;;;;;;;;;;5034635;28;38527;-76
2021/07/25 07:53:34;;;;;;;16.13;12.98;;;;;;;;;;5041302;28;37996;-78
2021/07/25 07:56:01;;;;;;;20.83;13.80;;;;;;;;;;5034083;28;38199;-79
2021/07/25 07:58:27;;;;;;;17.52;13.55;;;;;;;;;;5016052;28;48098;-78
2021/07/25 08:00:53;;;;;;;19.15;14.80;;;;;;;;;;5045804;28;39561;-78
2021/07/25 08:03:20;;;;;;;22.50;14.07;;;;;;;;;;5016392;28;38138;-76
2021/07/25 08:05:46;;;;;;;20.52;15.50;;;;;;;;;;5037378;28;38629;-78
2021/07/25 08:08:12;;;;;;;17.83;14.65;;;;;;;;;;5036200;28;37724;-79
2021/07/25 08:10:39;;;;;;;21.08;15.15;;;;;;;;;;5043046;28;39186;-78
2021/07/25 08:13:05;;;;;;;22.50;15.27;;;;;;;;;;5044218;28;39477;-78
2021/07/25 08:15:32;;;;;;;25.52;17.88;;;;;;;;;;5034500;28;37058;-78
2021/07/25 08:17:58;;;;;;;22.40;17.50;;;;;;;;;;5027375;28;40394;-77
2021/07/25 08:20:24;;;;;;;23.85;18.30;;;;;;;;;;5035405;28;39704;-78
2021/07/25 08:22:51;;;;;;;22.50;17.08;;;;;;;;;;5056734;28;39123;-77
2021/07/25 08:25:18;;;;;;;24.63;16.67;;;;;;;;;;5043600;28;36870;-78
2021/07/25 08:27:44;;;;;;;18.65;14.18;;;;;;;;;;5047560;28;39379;-75
2021/07/25 08:30:11;;;;;;;20.83;15.75;;;;;;;;;;5036100;28;39176;-75
2021/07/25 08:32:37;;;;;;;19.10;15.27;;;;;;;;;;5032549;28;38247;-76
2021/07/25 08:35:04;;;;;;;18.05;14.27;;;;;;;;;;5030088;28;37125;-76
2021/07/25 08:37:30;;;;;;;16.25;13.70;;;;;;;;;;5033844;28;46304;-77
2021/07/25 08:39:57;;;;;;;17.17;13.63;;;;;;;;;;5026160;28;39646;-77
2021/07/25 08:42:24;;;;;;;17.33;12.70;;;;;;;;;;5023288;28;38357;-76
2021/07/25 08:44:52;;;;;;;15.85;11.88;;;;;;;;;;5040205;28;38440;-76
2021/07/25 08:47:20;;;;;;;15.90;12.85;;;;;;;;;;5028876;28;39728;-76
2021/07/25 08:49:54;;;;;;;15.38;12.38;;;;;;;;;;5044279;28;38028;-77
2021/07/25 08:52:30;;;;;;;14.30;10.90;;;;;;;;;;5040592;28;37755;-77
2021/07/25 08:54:57;;;;;;;15.07;10.68;;;;;;;;;;5034139;28;37315;-77
2021/07/25 08:57:25;;;;;;;16.63;12.77;;;;;;;;;;5038026;28;38129;-78
2021/07/25 08:59:52;;;;;;;10.63;8.82;;;;;;;;;;5053262;28;38511;-79
2021/07/25 09:02:19;;;;;;;9.63;7.25;;;;;;;;;;5025065;28;38546;-77
2021/07/25 09:04:46;;;;;;;12.20;9.05;;;;;;;;;;5037552;28;36746;-77
2021/07/25 09:07:13;;;;;;;12.93;8.55;;;;;;;;;;5038437;28;40325;-78
2021/07/25 09:09:39;;;;;;;13.10;8.35;;;;;;;;;;5049182;28;38782;-77
2021/07/25 09:12:06;;;;;;;11.00;7.93;;;;;;;;;;5017666;28;38245;-77
2021/07/25 09:14:32;;;;;;;8.60;7.43;;;;;;;;;;5021542;28;37147;-78
2021/07/25 09:16:59;;;;;;;12.27;8.75;;;;;;;;;;5040916;28;40465;-77
2021/07/25 09:19:25;;;;;;;12.50;8.63;;;;;;;;;;5037703;28;38658;-78
2021/07/25 09:21:53;;;;;;;14.13;9.43;;;;;;;;;;5021379;28;39409;-77
2021/07/25 09:24:27;;;;;;;15.75;9.75;;;;;;;;;;5042883;28;37301;-78
2021/07/25 09:26:54;;;;;;;10.35;8.07;;;;;;;;;;5044621;28;40186;-77
2021/07/25 09:29:22;;;;;;;8.48;6.72;;;;;;;;;;5023976;28;38398;-77
2021/07/25 09:31:49;;;;;;;9.10;6.20;;;;;;;;;;5024458;28;38990;-77
2021/07/25 09:34:35;;;;;;;10.93;8.45;;;;;;;;;;5029708;28;38074;-77
2021/07/25 09:37:08;;;;;;;10.90;7.32;;;;;;;;;;5043513;28;39441;-76
2021/07/25 09:39:39;;;;;;;9.65;7.80;;;;;;;;;;5016291;28;47575;-76
2021/07/25 09:42:06;;;;;;;10.60;7.53;;;;;;;;;;5043579;28;39162;-76
2021/07/25 09:44:52;;;;;;;10.23;8.73;;;;;;;;;;5046135;28;36793;-77
2021/07/25 09:47:33;;;;;;;11.20;9.10;;;;;;;;;;5043146;28;40053;-77
2021/07/25 09:50:00;;;;;;;13.40;10.70;;;;;;;;;;5023555;28;38645;-77
2021/07/25 09:52:27;;;;;;;13.02;10.38;;;;;;;;;;5032372;28;38704;-77
2021/07/25 09:54:56;;;;;;;12.82;10.43;;;;;;;;;;5028246;28;36082;-77
2021/07/25 09:57:26;;;;;;;11.65;9.43;;;;;;;;;;5024963;28;39470;-77
2021/07/25 09:59:57;;;;;;;9.20;6.72;;;;;;;;;;5030842;28;38586;-77
2021/07/25 10:02:29;;;;;;;4.40;3.03;;;;;;;;;;5043560;28;37541;-78
2021/07/25 10:05:12;;;;;;;6.53;4.50;;;;;;;;;;5029630;28;36924;-78
2021/07/25 10:07:39;;;;;;;8.73;4.05;;;;;;;;;;5030211;28;47228;-77
2021/07/25 10:10:06;;;;;;;7.68;3.97;;;;;;;;;;5042136;28;39498;-77
2021/07/25 10:12:33;;;;;;;6.78;3.90;;;;;;;;;;5047049;28;38239;-77
2021/07/25 10:15:01;;;;;;;6.30;4.45;;;;;;;;;;5038370;28;38527;-78
2021/07/25 10:17:29;;;;;;;4.20;3.60;;;;;;;;;;5041242;28;40354;-78
2021/07/25 10:19:55;;;;;;;3.38;2.42;;;;;;;;;;5046202;28;39304;-75
2021/07/25 10:22:23;;;;;;;3.78;2.50;;;;;;;;;;5041807;28;38927;-78
2021/07/25 10:24:50;;;;;;;3.58;2.22;;;;;;;;;;5041181;28;38305;-77
2021/07/25 10:27:17;;;;;;;2.95;2.10;;;;;;;;;;5045120;28;40967;-78
2021/07/25 10:29:43;;;;;;;2.95;2.30;;;;;;;;;;5030777;28;39689;-78
2021/07/25 10:32:11;;;;;;;3.17;2.08;;;;;;;;;;5043644;28;38846;-77
2021/07/25 10:34:39;;;;;;;3.53;2.58;;;;;;;;;;5047603;28;37838;-78
2021/07/25 10:37:06;;;;;;;3.20;2.72;;;;;;;;;;5021426;28;37442;-77
2021/07/25 10:39:33;;;;;;;2.63;2.30;;;;;;;;;;5044694;28;38560;-77
2021/07/25 10:42:01;;;;;;;4.47;2.70;;;;;;;;;;5043521;28;38748;-77
2021/07/25 10:44:28;;;;;;;3.05;2.30;;;;;;;;;;5042861;28;48567;-77
2021/07/25 10:47:13;;;;;;;3.05;1.90;;;;;;;;;;5030775;28;39879;-77
2021/07/25 10:49:40;;;;;;;1.98;1.63;;;;;;;;;;5018681;28;46915;-77
2021/07/25 10:52:06;;;;;;;2.00;1.90;;;;;;;;;;5039980;28;39510;-77
2021/07/25 10:54:33;;;;;;;5.60;2.55;;;;;;;;;;5050419;28;36771;-77
2021/07/25 10:57:02;;;;;;;4.63;2.60;;;;;;;;;;5026624;28;37783;-77
2021/07/25 10:59:44;;;;;;;3.22;2.22;;;;;;;;;;5045845;28;48932;-78
2021/07/25 11:02:17;;;;;;;4.03;2.40;;;;;;;;;;5040555;28;39358;-78
2021/07/25 11:04:56;;;;;;;3.60;2.45;;;;;;;;;;5042593;28;37567;-78
2021/07/25 11:07:22;;;;;;;4.15;2.85;;;;;;;;;;5044899;28;39307;-78
2021/07/25 11:09:55;;;;;;;5.30;2.38;;;;;;;;;;5045881;28;37056;-78
2021/07/25 11:12:21;;;;;;;3.70;2.50;;;;;;;;;;5045955;28;37954;-78
2021/07/25 11:14:56;;;;;;;6.32;2.90;;;;;;;;;;5049495;28;35230;-77
2021/07/25 11:17:41;;;;;;;4.32;3.38;;;;;;;;;;5044572;28;37463;-78
2021/07/25 11:20:09;;;;;;;4.20;3.47;;;;;;;;;;5049464;28;38294;-78
2021/07/25 11:22:42;;;;;;;3.72;2.63;;;;;;;;;;5045523;28;37105;-78
2021/07/25 11:25:08;;;;;;;3.13;2.38;;;;;;;;;;5039744;28;35868;-78
2021/07/25 11:27:48;;;;;;;6.82;2.83;;;;;;;;;;5045461;28;39707;-78
2021/07/25 11:30:35;;;;;;;2.65;2.00;;;;;;;;;;5046639;28;39279;-78
2021/07/25 11:33:01;;;;;;;4.00;2.20;;;;;;;;;;5042329;28;39587;-78
2021/07/25 11:35:27;;;;;;;3.30;2.10;;;;;;;;;;5042981;28;49065;-78
2021/07/25 11:37:54;;;;;;;2.40;1.95;;;;;;;;;;5051720;28;37601;-79
2021/07/25 11:40:24;;;;;;;2.95;2.28;;;;;;;;;;5053449;28;38106;-78
2021/07/25 11:42:51;;;;;;;4.35;2.75;;;;;;;;;;5050369;28;37834;-77
2021/07/25 11:45:17;;;;;;;3.08;2.78;;;;;;;;;;5045898;28;36878;-78
2021/07/25 11:47:45;;;;;;;3.83;2.92;;;;;;;;;;5047516;28;38785;-78
2021/07/25 11:50:11;;;;;;;4.35;2.50;;;;;;;;;;5031335;28;38430;-78
2021/07/25 11:52:38;;;;;;;2.60;2.25;;;;;;;;;;5049316;28;37021;-76
2021/07/25 11:55:04;;;;;;;4.43;2.40;;;;;;;;;;5047099;28;36798;-76
2021/07/25 11:57:31;;;;;;;5.22;2.92;;;;;;;;;;5045543;28;47325;-76
2021/07/25 12:00:01;;;;;;;4.95;2.65;;;;;;;;;;5040429;28;38621;-77
2021/07/25 12:02:28;;;;;;;4.45;2.75;;;;;;;;;;5047093;28;38993;-77
2021/07/25 12:04:58;;;;;;;3.17;2.58;;;;;;;;;;5014449;28;35904;-77
2021/07/25 12:07:35;;;;;;;3.47;2.03;;;;;;;;;;5043508;28;40326;-78
2021/07/25 12:10:01;;;;;;;5.32;2.20;;;;;;;;;;5041599;28;38611;-78
2021/07/25 12:12:29;;;;;;;2.92;1.83;;;;;;;;;;5019335;28;37607;-81
2021/07/25 12:14:58;;;;;;;2.72;1.70;;;;;;;;;;5012586;28;37573;-77
2021/07/25 12:17:49;;;;;;;3.25;1.60;;;;;;;;;;5037232;28;38856;-77
2021/07/25 12:20:16;;;;;;;1.92;1.55;;;;;;;;;;5038733;28;38386;-76
2021/07/25 12:22:56;;;;;;;2.17;1.85;;;;;;;;;;5047320;28;37857;-77
2021/07/25 12:25:26;;;;;;;2.85;1.80;;;;;;;;;;5033296;28;36915;-77
2021/07/25 12:28:06;;;;;;;2.17;1.55;;;;;;;;;;5035680;28;40674;-77
2021/07/25 12:30:39;;;;;;;2.65;1.80;;;;;;;;;;5040539;28;48733;-77
2021/07/25 12:33:06;;;;;;;2.72;2.10;;;;;;;;;;5043837;28;37512;-78
2021/07/25 12:35:33;;;;;;;2.70;2.03;;;;;;;;;;5043549;28;37001;-77
2021/07/25 12:38:00;;;;;;;2.83;1.73;;;;;;;;;;5044675;28;40930;-78
2021/07/25 12:40:27;;;;;;;2.72;2.00;;;;;;;;;;5050040;28;38506;-78
2021/07/25 12:42:59;;;;;;;4.85;2.05;;;;;;;;;;5042652;28;37556;-78
2021/07/25 12:45:35;;;;;;;1.83;1.55;;;;;;;;;;5045658;28;37716;-78
2021/07/25 12:48:07;;;;;;;1.80;1.60;;;;;;;;;;5021055;28;38286;-76
2021/07/25 12:50:45;;;;;;;3.58;1.77;;;;;;;;;;5044434;28;37103;-78
2021/07/25 12:53:17;;;;;;;3.83;2.42;;;;;;;;;;5042783;28;37830;-77
2021/07/25 12:55:50;;;;;;;3.20;2.15;;;;;;;;;;5047117;28;36483;-77
2021/07/25 12:58:17;;;;;;;3.55;2.40;;;;;;;;;;5047122;28;40863;-77
2021/07/25 13:00:52;;;;;;;2.55;1.95;;;;;;;;;;5044466;28;37355;-77
2021/07/25 13:06:03;;;;;;;3.90;2.40;;;;;;;;;;5046885;28;38104;-77
2021/07/25 13:08:29;;;;;;;3.08;1.90;;;;;;;;;;5046365;28;39254;-77
2021/07/25 13:10:56;;;;;;;2.50;2.08;;;;;;;;;;5050980;28;39547;-78
2021/07/25 13:13:22;;;;;;;4.50;2.63;;;;;;;;;;5046597;28;38362;-77
2021/07/25 13:15:48;;;;;;;4.07;2.85;;;;;;;;;;5050836;28;38076;-78
2021/07/25 13:18:15;;;;;;;6.45;2.38;;;;;;;;;;5051684;28;40121;-78
2021/07/25 13:20:41;;;;;;;4.38;2.75;;;;;;;;;;5053814;28;39067;-78
2021/07/25 13:23:08;;;;;;;4.80;2.45;;;;;;;;;;5044077;28;37943;-78
2021/07/25 13:25:34;;;;;;;4.90;2.35;;;;;;;;;;5042270;28;37743;-78
2021/07/25 13:28:00;;;;;;;2.78;2.00;;;;;;;;;;5041622;28;39599;-78
2021/07/25 13:30:27;;;;;;;4.22;2.45;;;;;;;;;;5041502;28;46460;-79
2021/07/25 13:32:53;;;;;;;3.95;2.25;;;;;;;;;;5046689;28;36832;-78
2021/07/25 13:35:19;;;;;;;3.72;2.10;;;;;;;;;;5044387;28;37020;-78
2021/07/25 13:37:46;;;;;;;3.90;2.55;;;;;;;;;;5046775;28;39738;-79
2021/07/25 13:40:12;;;;;;;5.28;2.38;;;;;;;;;;5029084;28;37893;-78
2021/07/25 13:42:39;;;;;;;3.75;1.98;;;;;;;;;;5040776;28;37627;-78
2021/07/25 13:45:09;;;;;;;3.28;2.05;;;;;;;;;;5026993;28;35826;-76
2021/07/25 13:47:36;;;;;;;3.40;1.95;;;;;;;;;;5050428;28;39093;-78
2021/07/25 13:50:04;;;;;;;3.22;1.90;;;;;;;;;;5040083;28;38554;-78
2021/07/25 13:52:30;;;;;;;6.53;2.30;;;;;;;;;;5032334;28;48860;-77
2021/07/25 13:54:57;;;;;;;4.10;2.10;;;;;;;;;;5038878;28;37122;-77
2021/07/25 13:57:23;;;;;;;4.55;2.13;;;;;;;;;;5049206;28;38637;-78
2021/07/25 13:59:50;;;;;;;3.10;2.35;;;;;;;;;;5020588;28;37407;-78
2021/07/25 14:02:16;;;;;;;3.20;2.90;;;;;;;;;;5031266;28;38444;-77
2021/07/25 14:04:43;;;;;;;4.40;2.50;;;;;;;;;;5035891;28;38774;-78
2021/07/25 14:07:09;;;;;;;3.83;2.60;;;;;;;;;;5042587;28;39068;-77
2021/07/25 14:09:35;;;;;;;3.75;2.60;;;;;;;;;;5048948;28;38154;-75
2021/07/25 14:12:02;;;;;;;3.15;2.72;;;;;;;;;;5049303;28;37560;-73
2021/07/25 14:14:32;;;;;;;6.68;2.78;;;;;;;;;;5052403;28;37099;-76
2021/07/25 14:17:03;;;;;;;3.42;2.20;;;;;;;;;;5058936;28;38235;-76
2021/07/25 14:19:30;;;;;;;8.40;2.65;;;;;;;;;;5027418;28;47440;-80
2021/07/25 14:21:56;;;;;;;7.32;3.40;;;;;;;;;;5055020;28;37926;-81
2021/07/25 14:24:22;;;;;;;8.50;3.92;;;;;;;;;;5061120;28;35821;-80
2021/07/25 14:26:49;;;;;;;7.40;3.45;;;;;;;;;;5092083;22;39373;-78
2021/07/25 14:29:15;;;;;;;5.85;3.20;;;;;;;;;;5092850;28;37038;-77
2021/07/25 14:31:41;;;;;;;16.88;13.10;;;;;;;;;;5078736;28;36605;-77
2021/07/25 14:34:08;;;;;;;32.25;25.55;;;;;;;;;;5084797;28;35711;-76
2021/07/25 14:36:35;;;;;;;8.23;6.70;;;;;;;;;;5087769;28;39313;-77
2021/07/25 14:39:01;;;;;;;5.88;4.30;;;;;;;;;;5086047;28;37073;-78
2021/07/25 14:41:27;;;;;;;5.68;2.95;;;;;;;;;;5062887;28;48101;-78
2021/07/25 14:43:54;;;;;;;6.22;3.22;;;;;;;;;;5084938;28;37407;-77
2021/07/25 14:46:20;;;;;;;5.90;2.45;;;;;;;;;;5085831;28;38667;-77
2021/07/25 14:48:47;;;;;;;4.40;2.20;;;;;;;;;;5087210;28;39057;-77
2021/07/25 14:51:14;;;;;;;4.18;2.55;;;;;;;;;;5083096;28;38227;-77
2021/07/25 14:53:43;;;;;;;4.35;2.45;;;;;;;;;;5082528;28;37477;-77
2021/07/25 14:56:13;;;;;;;3.85;3.03;;;;;;;;;;5060494;28;39751;-78
2021/07/25 14:58:39;;;;;;;3.05;2.20;;;;;;;;;;5079998;28;37505;-76
2021/07/25 15:01:12;;;;;;;4.35;3.65;;;;;;;;;;5052272;28;39596;-78
2021/07/25 15:03:39;;;;;;;5.18;3.70;;;;;;;;;;5088840;28;36619;-78
2021/07/25 15:06:05;;;;;;;11.27;7.13;;;;;;;;;;5091800;28;39093;-78
2021/07/25 15:08:32;;;;;;;5.00;3.03;;;;;;;;;;5089009;28;39541;-79
2021/07/25 15:11:01;;;;;;;27.55;23.23;;;;;;;;;;5092929;28;37963;-79
2021/07/25 15:13:28;;;;;;;3.95;2.70;;;;;;;;;;5074651;28;47575;-77
2021/07/25 15:15:54;;;;;;;4.30;1.85;;;;;;;;;;5070004;28;39763;-77
2021/07/25 15:18:22;;;;;;;8.13;4.45;;;;;;;;;;5088555;28;37881;-77
2021/07/25 15:20:49;;;;;;;9.25;7.40;;;;;;;;;;5091156;28;38503;-77
2021/07/25 15:23:18;;;;;;;13.93;9.77;;;;;;;;;;5070882;28;39768;-77
2021/07/25 15:25:45;;;;;;;3.75;2.60;;;;;;;;;;5089482;28;40129;-77
2021/07/25 15:28:11;;;;;;;3.72;2.40;;;;;;;;;;5091896;28;38646;-77
2021/07/25 15:30:38;;;;;;;4.35;2.45;;;;;;;;;;5090761;28;38577;-77
2021/07/25 15:33:05;;;;;;;4.10;1.80;;;;;;;;;;5086473;28;37275;-77
2021/07/25 15:35:33;;;;;;;1.80;1.40;;;;;;;;;;5088972;28;40224;-78
2021/07/25 15:38:00;;;;;;;4.65;3.08;;;;;;;;;;5088870;28;40216;-77
2021/07/25 15:40:26;;;;;;;5.80;3.30;;;;;;;;;;5091330;28;39575;-77
2021/07/25 15:42:53;;;;;;;3.45;3.00;;;;;;;;;;5086578;28;39421;-77
2021/07/25 15:45:22;;;;;;;3.92;3.22;;;;;;;;;;5088078;28;37532;-77
2021/07/25 15:47:51;;;;;;;4.72;3.40;;;;;;;;;;5091176;28;37995;-77
2021/07/25 15:50:18;;;;;;;7.30;6.00;;;;;;;;;;5087605;28;37484;-77
2021/07/25 15:52:44;;;;;;;5.93;4.05;;;;;;;;;;5085304;28;38654;-78
2021/07/25 15:55:11;;;;;;;7.22;5.38;;;;;;;;;;5075207;28;40268;-77
2021/07/25 15:57:37;;;;;;;8.55;5.50;;;;;;;;;;5096961;28;39158;-77